sensor_id;sensor_type;location;lat;lon;timestamp;pressure;altitude;pressure_sealevel;temperature;humidity
51926;BME280;37952;51.938;15.480;2022-12-07T00:00:25;99355.73;;;1.32;85.38
51926;BME280;37952;51.938;15.480;2022-12-07T00:03:45;99351.21;;;1.31;85.41
51926;BME280;37952;51.938;15.480;2022-12-07T00:06:52;99345.96;;;1.26;85.50
51926;BME280;37952;51.938;15.480;2022-12-07T00:09:55;99343.91;;;1.13;85.59
51926;BME280;37952;51.938;15.480;2022-12-07T00:12:58;99346.15;;;1.15;85.59
51926;BME280;37952;51.938;15.480;2022-12-07T00:19:10;99347.48;;;1.16;85.62
51926;BME280;37952;51.938;15.480;2022-12-07T00:22:13;99350.55;;;1.11;85.67
51926;BME280;37952;51.938;15.480;2022-12-07T00:25:16;99344.05;;;1.08;85.97
51926;BME280;37952;51.938;15.480;2022-12-07T00:28:19;99341.74;;;1.10;85.83
51926;BME280;37952;51.938;15.480;2022-12-07T00:31:25;99342.05;;;1.11;85.71
51926;BME280;37952;51.938;15.480;2022-12-07T00:34:29;99338.09;;;1.10;85.83
51926;BME280;37952;51.938;15.480;2022-12-07T00:37:32;99338.57;;;1.06;85.86
51926;BME280;37952;51.938;15.480;2022-12-07T00:40:34;99333.42;;;1.09;85.78
51926;BME280;37952;51.938;15.480;2022-12-07T00:43:38;99326.48;;;1.09;85.77
51926;BME280;37952;51.938;15.480;2022-12-07T00:46:41;99326.55;;;1.07;85.80
51926;BME280;37952;51.938;15.480;2022-12-07T00:49:50;99326.00;;;1.08;85.73
51926;BME280;37952;51.938;15.480;2022-12-07T00:52:53;99327.75;;;1.14;85.73
51926;BME280;37952;51.938;15.480;2022-12-07T00:55:56;99327.22;;;1.08;85.58
51926;BME280;37952;51.938;15.480;2022-12-07T00:59:01;99329.22;;;1.11;85.49
51926;BME280;37952;51.938;15.480;2022-12-07T01:02:04;99329.55;;;1.12;85.48
51926;BME280;37952;51.938;15.480;2022-12-07T01:05:08;99327.02;;;1.15;85.52
51926;BME280;37952;51.938;15.480;2022-12-07T01:08:11;99329.48;;;1.14;85.60
51926;BME280;37952;51.938;15.480;2022-12-07T01:16:05;99330.45;;;1.04;85.87
51926;BME280;37952;51.938;15.480;2022-12-07T01:19:08;99329.23;;;1.05;85.96
51926;BME280;37952;51.938;15.480;2022-12-07T01:22:11;99327.00;;;1.09;85.87
51926;BME280;37952;51.938;15.480;2022-12-07T01:25:14;99323.84;;;1.10;85.81
51926;BME280;37952;51.938;15.480;2022-12-07T01:28:17;99322.07;;;1.18;85.98
51926;BME280;37952;51.938;15.480;2022-12-07T01:31:23;99322.56;;;1.19;85.97
51926;BME280;37952;51.938;15.480;2022-12-07T01:34:26;99320.50;;;1.19;86.13
51926;BME280;37952;51.938;15.480;2022-12-07T01:37:37;99318.77;;;1.18;86.10
51926;BME280;37952;51.938;15.480;2022-12-07T01:40:40;99316.40;;;1.16;86.01
51926;BME280;37952;51.938;15.480;2022-12-07T01:47:20;99313.42;;;1.17;86.68
51926;BME280;37952;51.938;15.480;2022-12-07T01:50:25;99310.69;;;1.21;86.61
51926;BME280;37952;51.938;15.480;2022-12-07T01:53:30;99305.39;;;1.25;86.69
51926;BME280;37952;51.938;15.480;2022-12-07T01:56:34;99293.07;;;1.24;86.68
51926;BME280;37952;51.938;15.480;2022-12-07T01:59:53;99287.05;;;1.28;86.73
51926;BME280;37952;51.938;15.480;2022-12-07T02:06:07;99280.52;;;1.32;86.67
51926;BME280;37952;51.938;15.480;2022-12-07T02:14:01;99281.17;;;1.39;86.87
51926;BME280;37952;51.938;15.480;2022-12-07T02:17:13;99281.45;;;1.42;86.70
51926;BME280;37952;51.938;15.480;2022-12-07T02:20:26;99276.69;;;1.43;86.74
51926;BME280;37952;51.938;15.480;2022-12-07T02:30:19;99270.89;;;1.40;87.15
51926;BME280;37952;51.938;15.480;2022-12-07T02:33:30;99259.81;;;1.45;87.16
51926;BME280;37952;51.938;15.480;2022-12-07T02:36:54;99261.09;;;1.43;87.31
51926;BME280;37952;51.938;15.480;2022-12-07T02:40:13;99256.21;;;1.43;87.26
51926;BME280;37952;51.938;15.480;2022-12-07T02:43:26;99253.03;;;1.39;87.53
51926;BME280;37952;51.938;15.480;2022-12-07T02:46:33;99250.11;;;1.44;87.43
51926;BME280;37952;51.938;15.480;2022-12-07T02:49:39;99249.56;;;1.50;87.31
51926;BME280;37952;51.938;15.480;2022-12-07T02:52:42;99247.25;;;1.52;87.41
51926;BME280;37952;51.938;15.480;2022-12-07T02:55:45;99247.41;;;1.53;87.43
51926;BME280;37952;51.938;15.480;2022-12-07T03:02:32;99246.72;;;1.52;87.59
51926;BME280;37952;51.938;15.480;2022-12-07T03:09:04;99243.92;;;1.48;87.80
51926;BME280;37952;51.938;15.480;2022-12-07T03:12:24;99234.96;;;1.51;87.88
51926;BME280;37952;51.938;15.480;2022-12-07T03:15:43;99234.05;;;1.53;87.90
51926;BME280;37952;51.938;15.480;2022-12-07T03:22:25;99233.65;;;1.59;88.10
51926;BME280;37952;51.938;15.480;2022-12-07T03:25:32;99236.60;;;1.59;88.06
51926;BME280;37952;51.938;15.480;2022-12-07T03:28:42;99234.30;;;1.61;88.12
51926;BME280;37952;51.938;15.480;2022-12-07T03:32:16;99225.05;;;1.63;88.15
51926;BME280;37952;51.938;15.480;2022-12-07T03:38:42;99218.65;;;1.67;88.16
51926;BME280;37952;51.938;15.480;2022-12-07T03:41:49;99217.60;;;1.67;88.19
51926;BME280;37952;51.938;15.480;2022-12-07T03:44:53;99216.92;;;1.72;88.33
51926;BME280;37952;51.938;15.480;2022-12-07T03:54:23;99218.84;;;1.98;88.01
51926;BME280;37952;51.938;15.480;2022-12-07T04:02:26;99208.09;;;1.76;87.93
51926;BME280;37952;51.938;15.480;2022-12-07T04:05:30;99209.94;;;1.67;87.97
51926;BME280;37952;51.938;15.480;2022-12-07T04:08:33;99200.92;;;1.51;87.83
51926;BME280;37952;51.938;15.480;2022-12-07T04:11:35;99201.25;;;1.46;87.84
51926;BME280;37952;51.938;15.480;2022-12-07T04:14:38;99205.27;;;1.40;88.03
51926;BME280;37952;51.938;15.480;2022-12-07T04:21:26;99211.08;;;1.37;87.81
51926;BME280;37952;51.938;15.480;2022-12-07T04:24:29;99207.70;;;1.22;87.63
51926;BME280;37952;51.938;15.480;2022-12-07T04:27:32;99198.38;;;1.16;87.65
51926;BME280;37952;51.938;15.480;2022-12-07T04:30:35;99196.00;;;1.08;87.59
51926;BME280;37952;51.938;15.480;2022-12-07T04:33:38;99199.88;;;1.06;87.35
51926;BME280;37952;51.938;15.480;2022-12-07T04:37:01;99195.40;;;0.99;87.50
51926;BME280;37952;51.938;15.480;2022-12-07T04:40:07;99202.59;;;0.91;87.27
51926;BME280;37952;51.938;15.480;2022-12-07T04:43:11;99201.58;;;0.90;87.03
51926;BME280;37952;51.938;15.480;2022-12-07T04:46:14;99200.30;;;0.92;86.82
51926;BME280;37952;51.938;15.480;2022-12-07T04:49:17;99199.73;;;0.94;86.73
51926;BME280;37952;51.938;15.480;2022-12-07T04:59:55;99196.85;;;0.91;86.37
51926;BME280;37952;51.938;15.480;2022-12-07T05:02:58;99194.90;;;0.93;86.26
51926;BME280;37952;51.938;15.480;2022-12-07T05:06:03;99192.71;;;0.91;86.12
51926;BME280;37952;51.938;15.480;2022-12-07T05:09:14;99194.91;;;0.87;85.89
51926;BME280;37952;51.938;15.480;2022-12-07T05:12:17;99191.02;;;0.77;85.66
51926;BME280;37952;51.938;15.480;2022-12-07T05:15:20;99189.82;;;0.82;85.92
51926;BME280;37952;51.938;15.480;2022-12-07T05:18:23;99193.92;;;0.85;85.63
51926;BME280;37952;51.938;15.480;2022-12-07T05:26:15;99188.44;;;0.82;85.50
51926;BME280;37952;51.938;15.480;2022-12-07T05:29:19;99185.22;;;0.80;85.23
51926;BME280;37952;51.938;15.480;2022-12-07T05:32:22;99190.73;;;0.81;84.98
51926;BME280;37952;51.938;15.480;2022-12-07T05:35:25;99187.47;;;0.86;85.11
51926;BME280;37952;51.938;15.480;2022-12-07T05:38:31;99185.39;;;0.85;84.93
51926;BME280;37952;51.938;15.480;2022-12-07T05:41:54;99192.83;;;0.87;84.77
51926;BME280;37952;51.938;15.480;2022-12-07T05:45:23;99193.83;;;0.88;84.71
51926;BME280;37952;51.938;15.480;2022-12-07T05:48:26;99189.77;;;0.90;84.51
51926;BME280;37952;51.938;15.480;2022-12-07T05:55:39;99179.17;;;0.73;84.21
51926;BME280;37952;51.938;15.480;2022-12-07T05:58:42;99185.99;;;0.71;84.00
51926;BME280;37952;51.938;15.480;2022-12-07T06:02:10;99181.79;;;0.73;84.04
51926;BME280;37952;51.938;15.480;2022-12-07T06:05:14;99171.02;;;0.73;83.69
51926;BME280;37952;51.938;15.480;2022-12-07T06:13:11;99168.09;;;0.78;83.72
51926;BME280;37952;51.938;15.480;2022-12-07T06:16:14;99163.46;;;0.83;83.72
51926;BME280;37952;51.938;15.480;2022-12-07T06:19:18;99159.89;;;0.86;83.39
51926;BME280;37952;51.938;15.480;2022-12-07T06:22:21;99157.24;;;0.81;83.55
51926;BME280;37952;51.938;15.480;2022-12-07T06:25:25;99153.75;;;0.88;83.52
51926;BME280;37952;51.938;15.480;2022-12-07T06:28:28;99145.43;;;0.87;83.40
51926;BME280;37952;51.938;15.480;2022-12-07T06:31:31;99137.09;;;0.82;83.31
51926;BME280;37952;51.938;15.480;2022-12-07T06:34:34;99133.12;;;0.87;83.50
51926;BME280;37952;51.938;15.480;2022-12-07T06:37:37;99135.32;;;0.90;83.24
51926;BME280;37952;51.938;15.480;2022-12-07T06:40:40;99135.99;;;0.90;83.48
51926;BME280;37952;51.938;15.480;2022-12-07T06:43:42;99137.80;;;0.87;83.29
51926;BME280;37952;51.938;15.480;2022-12-07T06:46:45;99139.60;;;0.79;83.32
51926;BME280;37952;51.938;15.480;2022-12-07T06:49:48;99140.40;;;0.87;83.33
51926;BME280;37952;51.938;15.480;2022-12-07T06:57:39;99124.66;;;0.92;83.47
51926;BME280;37952;51.938;15.480;2022-12-07T07:00:43;99120.38;;;0.90;83.25
51926;BME280;37952;51.938;15.480;2022-12-07T07:03:46;99113.53;;;0.92;83.22
51926;BME280;37952;51.938;15.480;2022-12-07T07:11:04;99111.20;;;0.89;83.11
51926;BME280;37952;51.938;15.480;2022-12-07T07:18:32;99099.05;;;0.78;83.34
51926;BME280;37952;51.938;15.480;2022-12-07T07:21:36;99098.77;;;0.82;83.56
51926;BME280;37952;51.938;15.480;2022-12-07T07:24:39;99105.14;;;0.77;83.40
51926;BME280;37952;51.938;15.480;2022-12-07T07:27:42;99101.68;;;0.77;83.55
51926;BME280;37952;51.938;15.480;2022-12-07T07:30:45;99098.98;;;0.75;83.31
51926;BME280;37952;51.938;15.480;2022-12-07T07:33:48;99094.73;;;0.83;83.71
51926;BME280;37952;51.938;15.480;2022-12-07T07:36:51;99094.20;;;0.84;83.75
51926;BME280;37952;51.938;15.480;2022-12-07T07:39:54;99090.30;;;0.87;83.71
51926;BME280;37952;51.938;15.480;2022-12-07T07:42:57;99087.94;;;0.90;83.78
51926;BME280;37952;51.938;15.480;2022-12-07T07:46:00;99083.85;;;0.88;83.93
51926;BME280;37952;51.938;15.480;2022-12-07T07:49:03;99081.85;;;0.90;83.78
51926;BME280;37952;51.938;15.480;2022-12-07T07:52:06;99083.17;;;0.92;83.94
51926;BME280;37952;51.938;15.480;2022-12-07T07:55:09;99086.81;;;0.92;83.78
51926;BME280;37952;51.938;15.480;2022-12-07T07:58:12;99082.98;;;0.98;84.04
51926;BME280;37952;51.938;15.480;2022-12-07T08:01:15;99081.85;;;0.95;84.06
51926;BME280;37952;51.938;15.480;2022-12-07T08:04:19;99085.45;;;0.92;84.21
51926;BME280;37952;51.938;15.480;2022-12-07T08:07:22;99084.77;;;0.86;84.22
51926;BME280;37952;51.938;15.480;2022-12-07T08:10:24;99081.14;;;0.79;84.44
51926;BME280;37952;51.938;15.480;2022-12-07T08:13:27;99081.69;;;0.79;84.52
51926;BME280;37952;51.938;15.480;2022-12-07T08:16:33;99077.64;;;0.80;84.55
51926;BME280;37952;51.938;15.480;2022-12-07T08:19:40;99081.89;;;0.72;84.97
51926;BME280;37952;51.938;15.480;2022-12-07T08:22:43;99073.28;;;0.81;84.70
51926;BME280;37952;51.938;15.480;2022-12-07T08:25:46;99070.08;;;0.78;85.10
51926;BME280;37952;51.938;15.480;2022-12-07T08:28:49;99077.27;;;0.87;84.96
51926;BME280;37952;51.938;15.480;2022-12-07T08:31:54;99070.48;;;0.93;84.85
51926;BME280;37952;51.938;15.480;2022-12-07T08:38:54;99074.40;;;0.90;85.17
51926;BME280;37952;51.938;15.480;2022-12-07T08:42:21;99068.34;;;0.94;85.30
51926;BME280;37952;51.938;15.480;2022-12-07T08:45:25;99061.11;;;1.04;85.28
51926;BME280;37952;51.938;15.480;2022-12-07T08:48:39;99057.35;;;1.13;85.32
51926;BME280;37952;51.938;15.480;2022-12-07T08:51:44;99065.33;;;1.18;85.04
51926;BME280;37952;51.938;15.480;2022-12-07T08:54:47;99066.63;;;1.10;85.28
51926;BME280;37952;51.938;15.480;2022-12-07T08:57:51;99056.44;;;1.15;85.28
51926;BME280;37952;51.938;15.480;2022-12-07T09:00:54;99052.16;;;1.23;85.24
51926;BME280;37952;51.938;15.480;2022-12-07T09:03:57;99047.92;;;1.30;85.12
51926;BME280;37952;51.938;15.480;2022-12-07T09:06:59;99049.36;;;1.34;85.08
51926;BME280;37952;51.938;15.480;2022-12-07T09:10:04;99054.16;;;1.36;85.06
51926;BME280;37952;51.938;15.480;2022-12-07T09:13:07;99052.87;;;1.43;84.96
51926;BME280;37952;51.938;15.480;2022-12-07T09:16:10;99051.07;;;1.40;85.13
51926;BME280;37952;51.938;15.480;2022-12-07T09:19:13;99047.00;;;1.42;84.95
51926;BME280;37952;51.938;15.480;2022-12-07T09:22:16;99051.20;;;1.36;85.00
51926;BME280;37952;51.938;15.480;2022-12-07T09:25:33;99059.02;;;1.36;85.01
51926;BME280;37952;51.938;15.480;2022-12-07T09:28:36;99051.94;;;1.34;85.16
51926;BME280;37952;51.938;15.480;2022-12-07T09:31:39;99050.84;;;1.31;85.25
51926;BME280;37952;51.938;15.480;2022-12-07T09:34:42;99050.29;;;1.32;85.29
51926;BME280;37952;51.938;15.480;2022-12-07T09:37:44;99045.94;;;1.32;85.36
51926;BME280;37952;51.938;15.480;2022-12-07T09:40:48;99040.84;;;1.34;85.58
51926;BME280;37952;51.938;15.480;2022-12-07T09:43:52;99041.42;;;1.32;85.43
51926;BME280;37952;51.938;15.480;2022-12-07T09:46:56;99029.90;;;1.34;85.61
51926;BME280;37952;51.938;15.480;2022-12-07T09:50:05;99025.88;;;1.45;85.46
51926;BME280;37952;51.938;15.480;2022-12-07T09:53:24;99040.25;;;1.46;85.44
51926;BME280;37952;51.938;15.480;2022-12-07T10:01:31;99032.95;;;1.46;85.43
51926;BME280;37952;51.938;15.480;2022-12-07T10:04:37;99035.46;;;1.44;85.73
51926;BME280;37952;51.938;15.480;2022-12-07T10:07:40;99035.55;;;1.46;85.85
51926;BME280;37952;51.938;15.480;2022-12-07T10:10:45;99032.77;;;1.51;85.69
51926;BME280;37952;51.938;15.480;2022-12-07T10:13:52;99026.48;;;1.63;85.72
51926;BME280;37952;51.938;15.480;2022-12-07T10:16:56;99016.05;;;1.63;85.69
51926;BME280;37952;51.938;15.480;2022-12-07T10:23:18;99013.35;;;1.60;85.68
51926;BME280;37952;51.938;15.480;2022-12-07T10:26:25;99018.63;;;1.68;85.64
51926;BME280;37952;51.938;15.480;2022-12-07T10:29:34;99024.42;;;1.72;85.49
51926;BME280;37952;51.938;15.480;2022-12-07T10:32:38;99028.53;;;1.68;85.55
51926;BME280;37952;51.938;15.480;2022-12-07T10:35:44;99029.27;;;1.72;85.41
51926;BME280;37952;51.938;15.480;2022-12-07T10:38:52;99021.54;;;1.75;85.45
51926;BME280;37952;51.938;15.480;2022-12-07T10:41:58;99023.54;;;1.72;85.33
51926;BME280;37952;51.938;15.480;2022-12-07T10:45:17;99018.14;;;1.72;85.30
51926;BME280;37952;51.938;15.480;2022-12-07T10:48:49;99011.73;;;1.82;85.36
51926;BME280;37952;51.938;15.480;2022-12-07T10:52:26;99005.77;;;1.97;85.23
51926;BME280;37952;51.938;15.480;2022-12-07T10:59:46;99012.08;;;2.10;84.84
51926;BME280;37952;51.938;15.480;2022-12-07T11:03:03;99009.59;;;2.16;84.91
51926;BME280;37952;51.938;15.480;2022-12-07T11:10:06;99010.61;;;2.17;84.65
51926;BME280;37952;51.938;15.480;2022-12-07T11:16:43;99004.42;;;2.15;84.43
51926;BME280;37952;51.938;15.480;2022-12-07T11:20:01;99000.86;;;2.12;84.49
51926;BME280;37952;51.938;15.480;2022-12-07T11:23:18;98989.46;;;2.15;84.41
51926;BME280;37952;51.938;15.480;2022-12-07T11:38:07;98969.70;;;2.32;84.28
51926;BME280;37952;51.938;15.480;2022-12-07T11:41:12;98969.46;;;2.38;84.04
51926;BME280;37952;51.938;15.480;2022-12-07T11:48:00;98968.06;;;2.33;83.53
51926;BME280;37952;51.938;15.480;2022-12-07T11:54:52;98995.20;;;2.38;82.99
51926;BME280;37952;51.938;15.480;2022-12-07T12:10:13;98998.23;;;1.36;83.33
51926;BME280;37952;51.938;15.480;2022-12-07T12:13:25;99005.06;;;1.35;83.75
51926;BME280;37952;51.938;15.480;2022-12-07T12:24:18;99015.27;;;1.30;84.06
51926;BME280;37952;51.938;15.480;2022-12-07T12:32:15;99009.60;;;1.23;84.47
51926;BME280;37952;51.938;15.480;2022-12-07T12:38:32;99003.27;;;1.26;84.41
51926;BME280;37952;51.938;15.480;2022-12-07T12:49:38;98997.70;;;1.36;84.41
51926;BME280;37952;51.938;15.480;2022-12-07T12:56:43;99006.80;;;1.40;84.07
51926;BME280;37952;51.938;15.480;2022-12-07T13:02:56;99012.30;;;1.46;83.50
51926;BME280;37952;51.938;15.480;2022-12-07T13:09:34;99028.38;;;1.43;82.89
51926;BME280;37952;51.938;15.480;2022-12-07T13:12:37;99035.32;;;1.48;82.62
51926;BME280;37952;51.938;15.480;2022-12-07T13:15:50;99028.98;;;1.46;82.25
51926;BME280;37952;51.938;15.480;2022-12-07T13:26:47;99031.00;;;1.53;81.76
51926;BME280;37952;51.938;15.480;2022-12-07T13:29:51;99032.79;;;1.46;81.53
51926;BME280;37952;51.938;15.480;2022-12-07T13:32:55;99032.29;;;1.46;81.52
51926;BME280;37952;51.938;15.480;2022-12-07T13:35:58;99034.75;;;1.44;81.29
51926;BME280;37952;51.938;15.480;2022-12-07T13:39:20;99028.88;;;1.43;81.33
51926;BME280;37952;51.938;15.480;2022-12-07T13:42:44;99036.55;;;1.42;81.31
51926;BME280;37952;51.938;15.480;2022-12-07T13:45:56;99041.64;;;1.46;80.91
51926;BME280;37952;51.938;15.480;2022-12-07T13:48:59;99036.52;;;1.44;80.83
51926;BME280;37952;51.938;15.480;2022-12-07T13:52:19;99047.48;;;1.33;80.46
51926;BME280;37952;51.938;15.480;2022-12-07T13:55:23;99036.02;;;1.32;80.37
51926;BME280;37952;51.938;15.480;2022-12-07T13:58:31;99046.70;;;1.35;80.35
51926;BME280;37952;51.938;15.480;2022-12-07T14:01:35;99038.53;;;1.36;80.12
51926;BME280;37952;51.938;15.480;2022-12-07T14:04:40;99044.30;;;1.34;80.03
51926;BME280;37952;51.938;15.480;2022-12-07T14:10:59;99046.70;;;1.35;80.09
51926;BME280;37952;51.938;15.480;2022-12-07T14:14:15;99041.83;;;1.36;79.92
51926;BME280;37952;51.938;15.480;2022-12-07T14:17:21;99035.60;;;1.35;80.00
51926;BME280;37952;51.938;15.480;2022-12-07T14:23:39;99035.04;;;1.37;80.01
51926;BME280;37952;51.938;15.480;2022-12-07T14:26:44;99031.52;;;1.38;80.19
51926;BME280;37952;51.938;15.480;2022-12-07T14:29:48;99031.83;;;1.39;80.08
51926;BME280;37952;51.938;15.480;2022-12-07T14:32:55;99031.86;;;1.38;80.18
51926;BME280;37952;51.938;15.480;2022-12-07T14:35:59;99032.23;;;1.38;80.37
51926;BME280;37952;51.938;15.480;2022-12-07T14:39:02;99031.67;;;1.38;80.22
51926;BME280;37952;51.938;15.480;2022-12-07T14:42:37;99031.95;;;1.35;80.28
51926;BME280;37952;51.938;15.480;2022-12-07T14:45:42;99029.48;;;1.36;80.29
51926;BME280;37952;51.938;15.480;2022-12-07T14:48:45;99033.88;;;1.35;80.40
51926;BME280;37952;51.938;15.480;2022-12-07T14:52:36;99029.89;;;1.34;80.35
51926;BME280;37952;51.938;15.480;2022-12-07T14:55:58;99028.05;;;1.32;80.50
51926;BME280;37952;51.938;15.480;2022-12-07T14:59:01;99028.57;;;1.32;80.56
51926;BME280;37952;51.938;15.480;2022-12-07T15:02:05;99026.69;;;1.37;80.53
51926;BME280;37952;51.938;15.480;2022-12-07T15:05:08;99024.74;;;1.38;80.71
51926;BME280;37952;51.938;15.480;2022-12-07T15:08:17;99026.34;;;1.37;80.66
51926;BME280;37952;51.938;15.480;2022-12-07T15:11:20;99023.76;;;1.31;80.80
51926;BME280;37952;51.938;15.480;2022-12-07T15:14:24;99030.85;;;1.37;80.79
51926;BME280;37952;51.938;15.480;2022-12-07T15:17:28;99027.80;;;1.35;80.81
51926;BME280;37952;51.938;15.480;2022-12-07T15:25:14;99029.66;;;1.31;80.94
51926;BME280;37952;51.938;15.480;2022-12-07T15:28:17;99033.56;;;1.34;81.13
51926;BME280;37952;51.938;15.480;2022-12-07T15:35:41;99026.14;;;1.33;81.10
51926;BME280;37952;51.938;15.480;2022-12-07T15:38:45;99020.80;;;1.31;81.29
51926;BME280;37952;51.938;15.480;2022-12-07T15:42:08;99022.21;;;1.41;81.43
51926;BME280;37952;51.938;15.480;2022-12-07T15:45:11;99019.44;;;1.40;81.34
51926;BME280;37952;51.938;15.480;2022-12-07T15:48:15;99021.33;;;1.46;81.48
51926;BME280;37952;51.938;15.480;2022-12-07T15:51:34;99030.18;;;1.51;81.31
51926;BME280;37952;51.938;15.480;2022-12-07T15:54:37;99027.66;;;1.49;81.40
51926;BME280;37952;51.938;15.480;2022-12-07T15:57:40;99024.77;;;1.52;81.46
51926;BME280;37952;51.938;15.480;2022-12-07T16:00:43;99026.00;;;1.52;81.59
51926;BME280;37952;51.938;15.480;2022-12-07T16:03:46;99021.98;;;1.57;81.48
51926;BME280;37952;51.938;15.480;2022-12-07T16:06:51;99027.46;;;1.55;81.52
51926;BME280;37952;51.938;15.480;2022-12-07T16:09:54;99013.75;;;1.44;81.57
51926;BME280;37952;51.938;15.480;2022-12-07T16:17:50;99001.20;;;1.41;81.78
51926;BME280;37952;51.938;15.480;2022-12-07T16:21:17;99002.58;;;1.46;81.73
51926;BME280;37952;51.938;15.480;2022-12-07T16:24:27;98998.94;;;1.41;81.88
51926;BME280;37952;51.938;15.480;2022-12-07T16:27:30;99000.95;;;1.38;81.90
51926;BME280;37952;51.938;15.480;2022-12-07T16:30:33;99005.21;;;1.45;81.94
51926;BME280;37952;51.938;15.480;2022-12-07T16:33:37;98994.92;;;1.46;82.01
51926;BME280;37952;51.938;15.480;2022-12-07T16:41:19;98992.19;;;1.55;81.89
51926;BME280;37952;51.938;15.480;2022-12-07T16:49:04;98994.06;;;1.61;81.85
51926;BME280;37952;51.938;15.480;2022-12-07T16:52:07;98990.05;;;1.56;81.98
51926;BME280;37952;51.938;15.480;2022-12-07T16:55:22;98997.46;;;1.58;82.00
51926;BME280;37952;51.938;15.480;2022-12-07T17:02:49;98996.21;;;1.54;81.92
51926;BME280;37952;51.938;15.480;2022-12-07T17:05:52;98994.77;;;1.55;82.14
51926;BME280;37952;51.938;15.480;2022-12-07T17:08:56;98994.27;;;1.55;82.24
51926;BME280;37952;51.938;15.480;2022-12-07T17:11:59;98988.08;;;1.53;82.31
51926;BME280;37952;51.938;15.480;2022-12-07T17:15:03;98992.61;;;1.53;82.35
51926;BME280;37952;51.938;15.480;2022-12-07T17:22:21;98994.95;;;1.46;82.32
51926;BME280;37952;51.938;15.480;2022-12-07T17:29:56;98992.41;;;1.39;82.56
51926;BME280;37952;51.938;15.480;2022-12-07T17:33:00;98986.91;;;1.37;82.83
51926;BME280;37952;51.938;15.480;2022-12-07T17:45:24;99002.11;;;1.39;82.90
51926;BME280;37952;51.938;15.480;2022-12-07T17:48:27;99005.17;;;1.36;83.07
51926;BME280;37952;51.938;15.480;2022-12-07T17:51:31;99005.41;;;1.34;83.13
51926;BME280;37952;51.938;15.480;2022-12-07T17:54:52;98998.23;;;1.41;82.95
51926;BME280;37952;51.938;15.480;2022-12-07T17:57:55;98994.05;;;1.46;82.88
51926;BME280;37952;51.938;15.480;2022-12-07T18:00:58;99001.58;;;1.45;83.04
51926;BME280;37952;51.938;15.480;2022-12-07T18:04:02;99006.37;;;1.42;83.07
51926;BME280;37952;51.938;15.480;2022-12-07T18:07:10;99008.99;;;1.46;83.08
51926;BME280;37952;51.938;15.480;2022-12-07T18:10:14;99010.83;;;1.48;83.03
51926;BME280;37952;51.938;15.480;2022-12-07T18:13:31;99016.27;;;1.51;82.85
51926;BME280;37952;51.938;15.480;2022-12-07T18:16:56;99016.45;;;1.51;82.93
51926;BME280;37952;51.938;15.480;2022-12-07T18:20:00;99015.48;;;1.49;83.13
51926;BME280;37952;51.938;15.480;2022-12-07T18:23:05;99014.73;;;1.56;83.09
51926;BME280;37952;51.938;15.480;2022-12-07T18:26:10;99013.63;;;1.63;83.09
51926;BME280;37952;51.938;15.480;2022-12-07T18:29:19;99011.48;;;1.59;83.01
51926;BME280;37952;51.938;15.480;2022-12-07T18:37:07;99015.54;;;1.53;83.00
51926;BME280;37952;51.938;15.480;2022-12-07T18:40:43;99015.68;;;1.54;82.96
51926;BME280;37952;51.938;15.480;2022-12-07T18:48:22;99023.37;;;1.47;83.02
51926;BME280;37952;51.938;15.480;2022-12-07T18:51:41;99019.64;;;1.40;83.16
51926;BME280;37952;51.938;15.480;2022-12-07T18:54:54;99024.08;;;1.42;82.88
51926;BME280;37952;51.938;15.480;2022-12-07T18:58:12;99025.65;;;1.42;82.94
51926;BME280;37952;51.938;15.480;2022-12-07T19:01:23;99027.90;;;1.41;83.03
51926;BME280;37952;51.938;15.480;2022-12-07T19:04:47;99028.73;;;1.42;82.80
51926;BME280;37952;51.938;15.480;2022-12-07T19:08:06;99022.97;;;1.39;82.81
51926;BME280;37952;51.938;15.480;2022-12-07T19:11:31;99030.55;;;1.36;82.83
51926;BME280;37952;51.938;15.480;2022-12-07T19:14:59;99027.77;;;1.41;82.47
51926;BME280;37952;51.938;15.480;2022-12-07T19:18:07;99028.05;;;1.38;82.75
51926;BME280;37952;51.938;15.480;2022-12-07T19:21:11;99022.95;;;1.24;82.67
51926;BME280;37952;51.938;15.480;2022-12-07T19:24:52;99022.10;;;1.28;82.57
51926;BME280;37952;51.938;15.480;2022-12-07T19:28:18;99023.36;;;1.27;82.59
51926;BME280;37952;51.938;15.480;2022-12-07T19:31:30;99029.55;;;1.29;82.72
51926;BME280;37952;51.938;15.480;2022-12-07T19:34:52;99035.60;;;1.19;82.86
51926;BME280;37952;51.938;15.480;2022-12-07T19:38:01;99037.94;;;1.22;82.66
51926;BME280;37952;51.938;15.480;2022-12-07T19:41:10;99044.05;;;1.21;82.68
51926;BME280;37952;51.938;15.480;2022-12-07T19:45:23;99044.16;;;1.23;82.75
51926;BME280;37952;51.938;15.480;2022-12-07T19:49:08;99039.91;;;1.26;82.71
51926;BME280;37952;51.938;15.480;2022-12-07T19:53:20;99042.92;;;1.24;82.61
51926;BME280;37952;51.938;15.480;2022-12-07T19:57:07;99042.33;;;1.20;82.51
51926;BME280;37952;51.938;15.480;2022-12-07T20:01:27;99043.41;;;1.19;82.63
51926;BME280;37952;51.938;15.480;2022-12-07T20:05:49;99045.27;;;1.21;82.51
51926;BME280;37952;51.938;15.480;2022-12-07T20:09:06;99041.21;;;1.18;82.66
51926;BME280;37952;51.938;15.480;2022-12-07T20:12:12;99043.23;;;1.20;82.52
51926;BME280;37952;51.938;15.480;2022-12-07T20:15:39;99041.98;;;1.26;82.56
51926;BME280;37952;51.938;15.480;2022-12-07T20:18:47;99047.88;;;1.21;82.36
51926;BME280;37952;51.938;15.480;2022-12-07T20:22:02;99043.23;;;1.19;82.46
51926;BME280;37952;51.938;15.480;2022-12-07T20:25:07;99045.18;;;1.13;82.24
51926;BME280;37952;51.938;15.480;2022-12-07T20:28:11;99041.09;;;1.10;82.41
51926;BME280;37952;51.938;15.480;2022-12-07T20:31:16;99039.48;;;1.12;82.41
51926;BME280;37952;51.938;15.480;2022-12-07T20:34:24;99043.19;;;1.10;82.49
51926;BME280;37952;51.938;15.480;2022-12-07T20:38:01;99047.55;;;1.09;82.23
51926;BME280;37952;51.938;15.480;2022-12-07T20:41:49;99049.86;;;1.08;82.35
51926;BME280;37952;51.938;15.480;2022-12-07T20:45:47;99049.92;;;1.06;82.47
51926;BME280;37952;51.938;15.480;2022-12-07T20:48:57;99057.52;;;1.07;82.52